New Orleans, LA (70124)

2:47 PM CDT on April 25, 2015 (GMT -0500)
Lakeview East | | Change Station
CLOSE
Current Station
Personal Weather Station
Location: New Orleans, LA
Elevation: -13 ft
Nearby Weather Stations
Active Advisory: Severe Thunderstorm Watch Active Notice: Local Storm Report

Elev -13 ft 30.01 °N, 90.10 °W | Updated 8 minutes ago

Rain
Rain
70.5 °F
Feels Like 70.5 °F
N
4.7
Wind Variable Wind from North

Today
High -- | Low -- °F
--% Chance of Precip.
Yesterday
High -- | Low -- °F
Precip. -- in
6:23 AM 7:33 PM
Waxing Crescent, 48% visible
Pressure 29.88 in
Visibility 5.0 miles
Clouds Few 700 ft
Scattered Clouds 7500 ft
Overcast 11000 ft
Dew Point 67 °F
Humidity 90%
Rainfall 0.46 in
Snow Depth Not available.
UV 3 out of 12
Pollen 5.90 out of 12
Air Quality Not available.
Flu Activity Sporadic
SPECI KNEW 251925Z 31020KT 5SM -RA FEW007 SCT075 OVC110 23/21 A2988 RMK AO2 PK WND 30032/1854 PRESFR P0010 T02330206

More Conditions Fewer Conditions

Pressure 29.88 in
Visibility 5.0 miles
Clouds Few 700 ft
Scattered Clouds 7500 ft
Overcast 11000 ft
Dew Point 67 °F
Humidity 90%
Rainfall 0.46 in
Snow Depth Not available.
UV 3 out of 12
Pollen 5.90 out of 12
Air Quality Not available.
Flu Activity Sporadic
SPECI KNEW 251925Z 31020KT 5SM -RA FEW007 SCT075 OVC110 23/21 A2988 RMK AO2 PK WND 30032/1854 PRESFR P0010 T02330206

More Conditions Fewer Conditions

10-Day Weather Forecast

Almanac

Astronomy

Apr. 25, 2015 Rise Set
Actual Time
Civil Twilight
Nautical Twilight
Astronomical Twilight
Moon
Length of Visible Light
Length of Day
Tomorrow will be .
, % of the Moon is Illuminated

Today's Extremes

State Highs State Lows

Community

WunderPhotos

Upload Photos

1,816,791 photos uploaded!

WunderBlogs® & News

Nearby

Air Quality

  Air Quality AQ Index Pollutant
Not available.

Snow Depth

Station Depth Elevation

Earthquake Activity

City Distance Mag. Time & Date
Minimum magnitude displayed is 2.5.

Coastal Water Temperatures

Place Temperature

Stations

Nearby Weather Stations

Station Location Temp. Windchill Dew Point Humidity Wind Precip. Elev Updated Type
                   
Severe Thunderstorm Watch
Statement as of 2:43 PM CDT on April 25, 2015

Severe Thunderstorm Watch 111 remains in effect until 600 PM CDT
for the following locations


La
. Louisiana parishes included are

Jefferson Lafourche Orleans
Plaquemines St. Bernard St. Charles
St. Tammany Terrebonne